< Cyclone 199912 1999 Season Cyclone 199914 >
Cyclone 199913 (GWENDA)
General InformationTrack Information on Google MapsDetailed Wind InformationList of All Images || ResourceGoogle EarthGE AnimationAtom FeedGeoJSON
Detalied Best Track (Time Zone = UTC)
Year Month Day Hour Lat. Long. Pressure (hPa) Wind (kt) Class Image Chart
1999 4 2 00 -11.1 131.0 1007 0 0 Image --
1999 4 3 00 -10.9 129.2 1006 0 0 Image --
1999 4 4 00 -11.2 125.2 1002 23 2 Image --
1999 4 4 06 -11.3 124.2 1000 27 2 Image --
1999 4 4 12 -11.6 123.2 998 29 2 Image --
1999 4 4 16 -11.9 122.6 995 35 3 Image --
1999 4 4 19 -12.2 122.0 990 41 3 Image --
1999 4 4 22 -12.4 121.4 990 41 3 Image --
1999 4 5 01 -12.5 120.8 985 49 4 Image --
1999 4 5 04 -12.6 120.3 980 54 4 Image --
1999 4 5 07 -12.8 119.8 975 60 4 Image --
1999 4 5 10 -13.0 119.4 970 64 5 Image --
1999 4 5 13 -13.3 118.9 965 70 5 Image --
1999 4 5 16 -13.6 118.3 960 76 5 Image --
1999 4 5 19 -13.8 117.9 950 84 5 Image --
1999 4 5 22 -14.1 117.6 940 93 5 Image --
1999 4 6 01 -14.6 117.4 930 101 5 Image --
1999 4 6 04 -15.1 117.1 920 107 5 Image --
1999 4 6 07 -15.5 116.9 910 115 5 Image --
1999 4 6 10 -16.0 116.8 900 121 5 Image --
1999 4 6 13 -16.3 116.6 900 121 5 Image --
1999 4 6 16 -16.5 116.4 900 121 5 Image --
1999 4 6 19 -16.7 116.4 910 115 5 Image --
1999 4 6 22 -17.0 116.5 920 107 5 Image --
1999 4 7 01 -17.4 116.9 930 101 5 Image --
1999 4 7 04 -18.0 117.3 935 97 5 Image --
1999 4 7 05 -18.2 117.4 935 97 5 Image --
1999 4 7 06 -18.4 117.5 940 93 5 Image --
1999 4 7 07 -18.6 117.6 940 93 5 Image --
1999 4 7 08 -18.8 117.8 945 89 5 Image --
1999 4 7 09 -19.0 117.9 945 89 5 Image --
1999 4 7 10 -19.1 118.0 950 84 5 Image --
1999 4 7 11 -19.3 118.1 955 80 5 Image --
1999 4 7 12 -19.4 118.2 960 76 5 Image --
1999 4 7 13 -19.5 118.4 965 70 5 Image --
1999 4 7 14 -19.6 118.5 970 64 5 Image --
1999 4 7 15 -19.8 118.7 975 60 4 Image --
1999 4 7 16 -20.0 118.8 980 54 4 Image --
1999 4 7 17 -20.1 118.9 985 49 4 Image --
1999 4 7 18 -20.2 119.0 990 41 3 Image --
1999 4 7 19 -20.3 119.1 995 35 3 Image --
1999 4 7 20 -20.4 119.3 998 29 2 Image --
1999 4 7 21 -20.5 119.5 999 29 2 Image --
1999 4 7 22 -20.5 119.7 1000 27 2 Image --
1999 4 8 01 -20.2 120.1 1001 25 2 Image --
1999 4 8 04 -19.9 120.6 1002 23 2 Image --
< Cyclone 199912 1999 Season Cyclone 199914 >

Help